Terminal Aerodrome Forecast
Issued by NWS

Home | Current Version | Previous Version | Text Only | Print | Product List | Glossary On
Versions: 1 2 3 4 5 6 7 8 9 10 11 12 13 14 15 16
000
FTUS42 TJSJ 220500
TAFKPK
TAF
TKPK 220521Z 2206/2306 05005KT P6SM FEW019
     FM221500 08011KT P6SM SCT020
     FM222300 04005KT P6SM FEW022
      AMD NOT SKED TIL 221100=

USA.gov is the U.S. government's official web portal to all federal, state and local government web resources and services.